Change the Weather History Date:

Tuesday, March 20, 2012

  Actual Average Record
Temperature  
Mean Temperature 73 °F -  
Max Temperature 82 °F 53 °F 82 °F (2012)
Min Temperature 64 °F 34 °F 23 °F (2013)
Cooling Degree Days 8    
Growing Degree Days 23 (Base 50)    
Moisture  
Dew Point 55 °F    
Average Humidity 55    
Maximum Humidity 68    
Minimum Humidity 42    
Precipitation  
Precipitation 0.00 in - - ()
Sea Level Pressure  
Sea Level Pressure 30.04 in    
Wind  
Wind Speed 7 mph (SSE)    
Max Wind Speed 16 mph    
Max Gust Speed 22 mph    
Visibility 10 miles    
Events      
Averages and records for this station are not official NWS values.
T = Trace of Precipitation, MM = Missing Value Source: NWS Daily Summary

Daily Weather History Graph

Daily Weather History Graph

Search for Another Location

Airport or City:

Trip Planner

Search our weather history database for the weather conditions in past years. The results will help you decide how hot, cold, wet, or windy it might be!

Date:

Astronomy

Mar. 20, 2012 Rise Set
Actual Time 7:50 AM EDT 8:00 PM EDT
Civil Twilight 7:24 AM EDT 8:26 PM EDT
Nautical Twilight 6:53 AM EDT 8:57 PM EDT
Astronomical Twilight 6:22 AM EDT 9:28 PM EDT
Moon 6:31 AM EDT (3/20) 6:28 PM EDT (3/20)
Length of Visible Light 13h 02m
Length of Day
12h 09m
Waning Crescent, 4% of the Moon is Illuminated
Mar 20
Waning Crescent
Mar 22
New
Mar 30
First Quarter
Apr 6
Full
Apr 13
Last Quarter

Hourly Weather History & Observations

Time (EDT) Temp. Heat Index Dew Point Humidity Pressure Visibility Wind Dir Wind Speed Gust Speed Precip Events Conditions
12:15 AM 69.8 °F - 51.8 °F 53% 30.03 in 10.0 mi SSE 8.1 mph - N/A   Clear
12:35 AM 69.8 °F - 51.8 °F 53% 30.03 in 10.0 mi SSE 8.1 mph - N/A   Clear
12:55 AM 66.2 °F - 51.8 °F 60% 30.03 in 10.0 mi SSE 6.9 mph - N/A   Clear
1:15 AM 68.0 °F - 51.8 °F 56% 30.03 in 10.0 mi SSE 3.5 mph - N/A   Clear
1:35 AM 66.2 °F - 51.8 °F 60% 30.03 in 10.0 mi SSE 5.8 mph - N/A   Clear
1:55 AM 69.8 °F - 51.8 °F 53% 30.02 in 10.0 mi SSE 5.8 mph - N/A   Clear
2:15 AM 69.8 °F - 51.8 °F 53% 30.03 in 10.0 mi SSE 4.6 mph - N/A   Clear
2:35 AM 69.8 °F - 51.8 °F 53% 30.03 in 10.0 mi SSE 4.6 mph - N/A   Clear
2:55 AM 68.0 °F - 51.8 °F 56% 30.03 in 10.0 mi South 4.6 mph - N/A   Clear
3:15 AM 69.8 °F - 51.8 °F 53% 30.03 in 10.0 mi South 4.6 mph - N/A   Clear
3:35 AM 69.8 °F - 51.8 °F 53% 30.03 in 10.0 mi South 4.6 mph - N/A   Clear
3:55 AM 66.2 °F - 51.8 °F 60% 30.03 in 10.0 mi South 5.8 mph - N/A   Clear
4:15 AM 68.0 °F - 51.8 °F 56% 30.03 in 10.0 mi South 5.8 mph - N/A   Clear
4:35 AM 66.2 °F - 53.6 °F 64% 30.03 in 10.0 mi South 4.6 mph - N/A   Clear
4:55 AM 66.2 °F - 53.6 °F 64% 30.03 in 10.0 mi South 5.8 mph - N/A   Clear
5:15 AM 66.2 °F - 53.6 °F 64% 30.03 in 10.0 mi South 5.8 mph - N/A   Clear
5:35 AM 66.2 °F - 53.6 °F 64% 30.04 in 10.0 mi South 8.1 mph - N/A   Clear
5:55 AM 68.0 °F - 53.6 °F 60% 30.04 in 10.0 mi South 6.9 mph - N/A   Clear
6:15 AM 68.0 °F - 53.6 °F 60% 30.04 in 10.0 mi SSE 5.8 mph - N/A   Clear
6:35 AM 66.2 °F - 53.6 °F 64% 30.04 in 10.0 mi SSE 5.8 mph - N/A   Clear
6:55 AM 66.2 °F - 53.6 °F 64% 30.05 in 10.0 mi SSE 5.8 mph - N/A   Clear
7:15 AM 66.2 °F - 53.6 °F 64% 30.06 in 10.0 mi SSE 4.6 mph - N/A   Clear
7:35 AM 66.2 °F - 53.6 °F 64% 30.06 in 10.0 mi SE 5.8 mph - N/A   Clear
7:55 AM 64.4 °F - 53.6 °F 68% 30.06 in 10.0 mi SE 6.9 mph - N/A   Clear
8:15 AM 64.4 °F - 53.6 °F 68% 30.07 in 10.0 mi SE 5.8 mph - N/A   Clear
8:35 AM 66.2 °F - 53.6 °F 64% 30.07 in 10.0 mi SE 5.8 mph - N/A   Clear
8:55 AM 66.2 °F - 53.6 °F 64% 30.08 in 10.0 mi SE 4.6 mph - N/A   Clear
9:15 AM 66.2 °F - 53.6 °F 64% 30.09 in 10.0 mi SSE 3.5 mph - N/A   Clear
9:35 AM 68.0 °F - 53.6 °F 60% 30.09 in 10.0 mi SSE 4.6 mph - N/A   Clear
9:55 AM 69.8 °F - 55.4 °F 60% 30.10 in 10.0 mi SE 6.9 mph - N/A   Clear
10:15 AM 71.6 °F - 55.4 °F 57% 30.10 in 10.0 mi SE 10.4 mph - N/A   Clear
10:55 AM 73.4 °F - 57.2 °F 57% 30.11 in 10.0 mi SSE 6.9 mph - N/A   Clear
11:15 AM 73.4 °F - 57.2 °F 57% 30.11 in 10.0 mi South 8.1 mph - N/A   Clear
11:35 AM 75.2 °F - 57.2 °F 53% 30.10 in 10.0 mi South 6.9 mph - N/A   Clear
11:55 AM 75.2 °F - 57.2 °F 53% 30.09 in 10.0 mi South 9.2 mph - N/A   Clear
12:35 PM 78.8 °F - 57.2 °F 47% 30.10 in 10.0 mi South 10.4 mph - N/A   Clear
12:55 PM 78.8 °F - 55.4 °F 44% 30.09 in 10.0 mi South 8.1 mph - N/A   Clear
1:35 PM 80.6 °F 80.8 °F 57.2 °F 45% 30.09 in 10.0 mi South 10.4 mph - N/A   Clear
2:35 PM 82.4 °F 82.0 °F 57.2 °F 42% 30.07 in 10.0 mi South 13.8 mph 19.6 mph N/A   Clear
3:15 PM 82.4 °F 82.5 °F 59.0 °F 45% 30.04 in 10.0 mi South 10.4 mph 16.1 mph N/A   Clear
3:35 PM 82.4 °F 82.5 °F 59.0 °F 45% 30.04 in 10.0 mi South 9.2 mph 17.3 mph N/A   Clear
3:55 PM 82.4 °F 82.5 °F 59.0 °F 45% 30.03 in 10.0 mi SSE 10.4 mph 21.9 mph N/A   Clear
4:35 PM 82.4 °F 82.5 °F 59.0 °F 45% 30.00 in 10.0 mi SSE 13.8 mph 19.6 mph N/A   Clear
5:15 PM 82.4 °F 82.5 °F 59.0 °F 45% 30.00 in 10.0 mi SE 16.1 mph - N/A   Clear
5:35 PM 82.4 °F 82.5 °F 59.0 °F 45% 29.99 in 10.0 mi SSE 11.5 mph - N/A   Partly Cloudy
5:55 PM 80.6 °F 80.8 °F 57.2 °F 45% 29.99 in 10.0 mi SSE 11.5 mph - N/A   Clear
6:15 PM 80.6 °F 80.8 °F 57.2 °F 45% 29.98 in 10.0 mi SE 12.7 mph - N/A   Clear
6:35 PM 80.6 °F 80.8 °F 57.2 °F 45% 29.98 in 10.0 mi SSE 10.4 mph - N/A   Clear
6:55 PM 80.6 °F 80.8 °F 57.2 °F 45% 29.98 in 10.0 mi SSE 9.2 mph - N/A   Clear
7:35 PM 78.8 °F - 55.4 °F 44% 29.99 in 10.0 mi SSE 4.6 mph - N/A   Clear
8:15 PM 73.4 °F - 55.4 °F 53% 29.99 in 10.0 mi SSE 5.8 mph - N/A   Clear
8:35 PM 73.4 °F - 55.4 °F 53% 30.00 in 10.0 mi Calm Calm - N/A   Clear
8:55 PM 73.4 °F - 55.4 °F 53% 30.00 in 10.0 mi Calm Calm - N/A   Clear
9:35 PM 71.6 °F - 55.4 °F 57% 30.04 in 10.0 mi ESE 4.6 mph - N/A   Clear
9:55 PM 73.4 °F - 55.4 °F 53% 30.04 in 10.0 mi ESE 4.6 mph - N/A   Clear
10:15 PM 69.8 °F - 55.4 °F 60% 30.05 in 10.0 mi East 5.8 mph - N/A   Clear
10:35 PM 71.6 °F - 55.4 °F 57% 30.05 in 10.0 mi ESE 5.8 mph - N/A   Clear
10:55 PM 71.6 °F - 55.4 °F 57% 30.06 in 10.0 mi ESE 5.8 mph - N/A   Clear
11:15 PM 69.8 °F - 55.4 °F 60% 30.06 in 10.0 mi SE 6.9 mph - N/A   Clear
11:35 PM 69.8 °F - 55.4 °F 60% 30.07 in 10.0 mi ESE 4.6 mph - N/A   Clear
11:55 PM 69.8 °F - 55.4 °F 60% 30.07 in 10.0 mi SE 5.8 mph - N/A   Clear